Time;durP1;ratioP1;P1;durP2;ratioP2;P2;SDS_P1;SDS_P2;PMS_P1;PMS_P2;Temp;Humidity;BMP_temperature;BMP_pressure;BME280_temperature;BME280_humidity;BME280_pressure;Samples;Min_cycle;Max_cycle;Signal;HPM_P1;HPM_P2
2022/06/11 00:01:33;;;;;;;13.77;2.80;;;43.70;27.70;;;;;;5037987;28;20048;-63
2022/06/11 00:04:04;;;;;;;15.50;3.25;;;43.80;28.30;;;;;;5018421;28;20501;-65
2022/06/11 00:06:34;;;;;;;20.00;3.10;;;43.80;27.80;;;;;;5033979;28;20548;-62
2022/06/11 00:09:01;;;;;;;13.05;2.95;;;43.90;28.10;;;;;;5034621;28;20491;-63
2022/06/11 00:11:27;;;;;;;13.13;2.40;;;43.70;27.50;;;;;;5035700;28;20025;-60
2022/06/11 00:13:54;;;;;;;13.68;2.90;;;43.70;27.60;;;;;;5041059;28;20025;-61
2022/06/11 00:16:23;;;;;;;10.75;2.90;;;43.60;27.80;;;;;;5059237;28;20064;-61
2022/06/11 00:18:51;;;;;;;10.10;2.70;;;43.60;27.40;;;;;;5036748;28;20024;-61
2022/06/11 00:21:18;;;;;;;14.20;2.65;;;43.50;27.70;;;;;;5041407;28;20036;-61
2022/06/11 00:23:46;;;;;;;20.77;2.72;;;43.50;27.70;;;;;;5038716;28;20128;-61
2022/06/11 00:26:12;;;;;;;25.98;2.85;;;43.40;27.60;;;;;;5051928;28;20029;-62
2022/06/11 00:28:39;;;;;;;21.08;3.42;;;43.50;27.50;;;;;;5039048;28;20032;-59
2022/06/11 00:31:07;;;;;;;15.73;3.00;;;43.40;27.60;;;;;;5040437;28;20119;-62
2022/06/11 00:33:36;;;;;;;14.05;2.80;;;43.30;27.40;;;;;;5040862;28;20399;-62
2022/06/11 00:36:03;;;;;;;14.93;3.13;;;43.20;27.70;;;;;;5018725;28;20390;-62
2022/06/11 00:38:30;;;;;;;13.88;2.67;;;43.20;27.20;;;;;;5017536;28;20071;-61
2022/06/11 00:40:56;;;;;;;16.55;3.17;;;43.20;28.10;;;;;;5054117;28;20430;-60
2022/06/11 00:43:26;;;;;;;19.25;2.83;;;43.10;27.20;;;;;;5055966;28;20025;-61
2022/06/11 00:46:01;;;;;;;19.55;3.17;;;43.00;27.10;;;;;;5037564;28;20680;-62
2022/06/11 00:48:40;;;;;;;19.05;2.72;;;43.00;26.90;;;;;;5037316;28;20025;-61
2022/06/11 00:51:14;;;;;;;23.55;2.67;;;42.90;27.10;;;;;;5034136;28;20120;-61
2022/06/11 00:53:43;;;;;;;15.40;2.47;;;42.70;27.00;;;;;;5048879;28;20112;-61
2022/06/11 00:56:16;;;;;;;24.00;3.42;;;42.70;27.20;;;;;;5016987;28;20115;-60
2022/06/11 00:58:46;;;;;;;29.38;3.42;;;42.60;27.20;;;;;;5017035;28;20120;-58
2022/06/11 01:01:16;;;;;;;25.52;3.45;;;42.50;27.30;;;;;;5053183;28;20060;-61
2022/06/11 01:03:46;;;;;;;22.25;3.03;;;42.50;27.50;;;;;;5053236;28;20047;-60
2022/06/11 01:06:51;;;;;;;19.67;3.47;;;42.40;27.30;;;;;;5035251;28;20470;-61
2022/06/11 01:09:38;;;;;;;19.45;3.30;;;42.30;27.10;;;;;;5043611;28;20028;-61
2022/06/11 01:12:40;;;;;;;20.13;3.63;;;42.20;27.10;;;;;;5060404;28;20032;-60
2022/06/11 01:15:19;;;;;;;19.95;3.28;;;42.20;27.40;;;;;;5024683;28;20029;-61
2022/06/11 01:17:50;;;;;;;19.90;2.75;;;42.10;27.60;;;;;;5038908;28;20745;-61
2022/06/11 01:20:33;;;;;;;23.42;3.33;;;42.00;27.80;;;;;;5065263;28;20035;-61
2022/06/11 01:23:30;;;;;;;21.15;3.08;;;41.90;27.90;;;;;;5038021;28;20043;-61
2022/06/11 01:26:38;;;;;;;16.02;3.42;;;41.70;28.20;;;;;;5041085;28;20066;-61
2022/06/11 01:29:42;;;;;;;17.85;3.10;;;41.70;27.90;;;;;;5017673;28;20119;-61
2022/06/11 01:32:21;;;;;;;15.07;3.08;;;41.60;27.90;;;;;;5066962;28;20028;-58
2022/06/11 01:35:07;;;;;;;26.48;3.15;;;41.50;28.00;;;;;;5042704;28;20021;-60
2022/06/11 01:38:06;;;;;;;20.40;3.25;;;41.30;28.00;;;;;;5023527;28;20029;-61
2022/06/11 01:40:56;;;;;;;27.17;4.00;;;41.20;28.30;;;;;;5036305;28;20021;-60
2022/06/11 01:43:34;;;;;;;20.00;3.72;;;41.20;28.20;;;;;;5036577;28;20024;-61
2022/06/11 01:46:06;;;;;;;19.25;3.60;;;41.10;28.20;;;;;;5038784;28;20029;-61
2022/06/11 01:48:32;;;;;;;18.13;2.97;;;41.00;28.30;;;;;;5039540;28;20078;-60
2022/06/11 01:51:08;;;;;;;17.15;3.47;;;40.90;28.50;;;;;;5036435;28;20028;-60
2022/06/11 01:54:13;;;;;;;15.73;3.17;;;40.80;28.50;;;;;;5041018;28;20032;-62
2022/06/11 01:56:57;;;;;;;19.60;3.50;;;40.70;28.30;;;;;;5009383;28;20063;-60
2022/06/11 01:59:40;;;;;;;17.63;3.45;;;40.60;28.40;;;;;;5034354;28;20039;-61
2022/06/11 02:02:30;;;;;;;17.92;2.58;;;40.50;28.40;;;;;;5066223;28;20497;-61
2022/06/11 02:05:04;;;;;;;14.57;2.67;;;40.40;28.40;;;;;;5039780;28;20082;-58
2022/06/11 02:08:12;;;;;;;20.45;2.45;;;40.20;28.40;;;;;;5038396;28;20062;-60
2022/06/11 02:10:52;;;;;;;10.38;2.85;;;40.10;28.40;;;;;;5028911;28;20056;-61
2022/06/11 02:13:45;;;;;;;10.48;2.30;;;40.00;28.60;;;;;;5047709;28;20040;-60
2022/06/11 02:16:34;;;;;;;18.63;2.28;;;39.90;28.60;;;;;;5040371;28;20051;-61
2022/06/11 02:19:05;;;;;;;9.00;2.58;;;39.80;28.30;;;;;;5053771;28;20039;-62
2022/06/11 02:21:36;;;;;;;13.07;2.72;;;39.70;28.50;;;;;;5036176;28;20062;-61
2022/06/11 02:24:13;;;;;;;16.45;2.78;;;39.60;28.40;;;;;;5065478;28;20058;-61
2022/06/11 02:26:44;;;;;;;16.27;3.05;;;39.50;28.50;;;;;;5025357;28;20214;-61
2022/06/11 02:29:13;;;;;;;17.35;2.67;;;39.40;28.70;;;;;;5040010;28;20058;-63
2022/06/11 02:31:44;;;;;;;17.90;2.40;;;39.30;28.70;;;;;;5039478;28;20060;-62
2022/06/11 02:34:13;;;;;;;12.30;2.78;;;39.20;28.70;;;;;;5053736;28;20045;-60
2022/06/11 02:36:58;;;;;;;21.48;3.17;;;39.10;28.90;;;;;;5023228;28;20049;-60
2022/06/11 02:39:26;;;;;;;12.65;2.55;;;39.10;29.10;;;;;;5035266;28;20062;-60
2022/06/11 02:41:53;;;;;;;21.85;2.78;;;39.00;29.30;;;;;;5058141;28;20095;-60
2022/06/11 02:44:20;;;;;;;13.05;3.38;;;38.80;29.40;;;;;;5041893;28;20035;-60
2022/06/11 02:46:47;;;;;;;14.90;2.95;;;38.70;29.50;;;;;;5042151;28;20515;-60
2022/06/11 02:49:16;;;;;;;19.85;3.08;;;38.60;29.80;;;;;;5037245;28;20065;-60
2022/06/11 02:51:44;;;;;;;17.88;3.05;;;38.60;29.80;;;;;;5037259;28;20042;-61
2022/06/11 02:54:11;;;;;;;21.70;3.25;;;38.50;30.00;;;;;;5027141;28;20057;-61
2022/06/11 02:56:37;;;;;;;21.73;3.22;;;38.40;30.10;;;;;;5053596;28;20050;-60
2022/06/11 02:59:04;;;;;;;27.45;3.53;;;38.30;30.40;;;;;;5038939;28;20134;-60
2022/06/11 03:01:32;;;;;;;20.48;3.45;;;38.20;30.20;;;;;;5040578;28;20131;-62
2022/06/11 03:03:59;;;;;;;22.95;4.18;;;38.20;30.50;;;;;;5037775;28;20065;-62
2022/06/11 03:06:26;;;;;;;17.58;3.58;;;38.10;30.60;;;;;;5034956;28;20075;-61
2022/06/11 03:08:55;;;;;;;24.52;3.58;;;38.00;30.90;;;;;;5045594;28;20164;-60
2022/06/11 03:11:21;;;;;;;23.98;3.45;;;37.90;30.90;;;;;;5044388;28;20491;-61
2022/06/11 03:13:48;;;;;;;16.92;3.65;;;37.80;31.10;;;;;;5038339;28;20048;-60
2022/06/11 03:16:15;;;;;;;24.25;3.90;;;37.80;31.40;;;;;;5022061;28;20055;-61
2022/06/11 03:18:41;;;;;;;19.88;3.35;;;37.70;31.10;;;;;;5019500;28;20149;-61
2022/06/11 03:21:08;;;;;;;23.17;3.85;;;37.60;31.20;;;;;;5037684;28;20070;-61
2022/06/11 03:23:35;;;;;;;21.35;3.33;;;37.60;31.50;;;;;;5052618;28;20031;-63
2022/06/11 03:26:02;;;;;;;24.85;4.00;;;37.50;31.70;;;;;;5053563;28;20029;-63
2022/06/11 03:28:30;;;;;;;22.98;3.72;;;37.40;31.60;;;;;;5037273;28;20065;-62
2022/06/11 03:30:57;;;;;;;21.08;3.72;;;37.40;31.80;;;;;;5052818;28;20042;-61
2022/06/11 03:33:25;;;;;;;23.75;3.47;;;37.40;31.80;;;;;;5019049;28;20061;-61
2022/06/11 03:35:52;;;;;;;23.88;3.15;;;37.30;31.90;;;;;;5053887;28;20055;-62
2022/06/11 03:38:19;;;;;;;31.92;4.10;;;37.30;32.10;;;;;;5054466;28;20052;-62
2022/06/11 03:40:46;;;;;;;37.92;4.65;;;37.20;32.30;;;;;;5039163;28;20053;-64
2022/06/11 03:43:13;;;;;;;33.80;5.05;;;37.20;32.30;;;;;;5057830;28;20184;-62
2022/06/11 03:45:40;;;;;;;34.33;5.20;;;37.10;32.40;;;;;;5025743;28;20072;-63
2022/06/11 03:48:07;;;;;;;42.25;5.95;;;37.10;32.70;;;;;;5019901;28;20058;-64
2022/06/11 03:50:36;;;;;;;27.75;5.15;;;37.00;32.60;;;;;;5020070;28;20050;-63
2022/06/11 03:53:05;;;;;;;47.28;4.88;;;37.00;32.90;;;;;;5052609;28;20036;-63
2022/06/11 03:55:32;;;;;;;42.20;4.78;;;37.00;32.70;;;;;;5033574;28;20059;-62
2022/06/11 03:57:59;;;;;;;32.75;5.22;;;36.90;32.80;;;;;;5032443;28;21012;-64
2022/06/11 04:03:14;;;;;;;31.73;5.25;;;36.90;33.10;;;;;;5036944;28;20162;-63
2022/06/11 04:05:42;;;;;;;31.02;6.22;;;36.90;32.90;;;;;;5018168;28;20097;-62
2022/06/11 04:08:10;;;;;;;42.47;5.18;;;36.80;32.90;;;;;;5038852;28;20158;-63
2022/06/11 04:10:37;;;;;;;31.45;4.45;;;36.80;32.90;;;;;;5033593;28;20049;-63
2022/06/11 04:13:05;;;;;;;33.10;4.32;;;36.80;32.90;;;;;;5058292;28;20054;-63
2022/06/11 04:15:31;;;;;;;23.42;4.03;;;36.80;32.90;;;;;;5035235;28;20045;-67
2022/06/11 04:18:00;;;;;;;31.20;5.43;;;36.70;32.90;;;;;;5036878;28;20727;-65
2022/06/11 04:20:26;;;;;;;25.90;5.07;;;36.60;32.90;;;;;;5036624;28;20075;-66
2022/06/11 04:22:52;;;;;;;42.70;5.63;;;36.60;32.80;;;;;;5032313;28;20056;-64
2022/06/11 04:25:21;;;;;;;26.73;4.90;;;36.60;33.20;;;;;;5037863;28;20107;-64
2022/06/11 04:27:53;;;;;;;36.85;6.50;;;36.60;33.20;;;;;;5036996;28;20074;-64
2022/06/11 04:30:24;;;;;;;25.55;4.75;;;36.50;33.30;;;;;;5052308;28;20536;-64
2022/06/11 04:32:51;;;;;;;49.30;6.00;;;36.50;32.80;;;;;;5017854;28;20064;-65
2022/06/11 04:35:19;;;;;;;35.08;6.90;;;36.50;33.10;;;;;;5040083;28;20054;-64
2022/06/11 04:37:46;;;;;;;29.48;5.50;;;36.40;32.90;;;;;;5037904;28;20084;-63
2022/06/11 04:40:15;;;;;;;33.67;5.38;;;36.40;33.00;;;;;;5040757;28;20516;-64
2022/06/11 04:42:41;;;;;;;47.05;6.53;;;36.30;33.20;;;;;;5046694;28;20078;-64
2022/06/11 04:45:08;;;;;;;26.75;6.03;;;36.30;32.90;;;;;;5034929;28;20141;-64
2022/06/11 04:47:35;;;;;;;41.72;5.80;;;36.30;33.00;;;;;;5038311;28;20072;-65
2022/06/11 04:50:05;;;;;;;36.28;6.85;;;36.20;32.90;;;;;;5038134;28;20144;-64
2022/06/11 04:52:31;;;;;;;42.47;5.88;;;36.20;33.20;;;;;;5044782;28;20049;-65
2022/06/11 04:54:58;;;;;;;33.78;5.13;;;36.10;33.00;;;;;;5062049;28;20078;-65
2022/06/11 04:57:24;;;;;;;30.02;5.95;;;36.10;33.00;;;;;;5041969;28;20421;-63
2022/06/11 04:59:52;;;;;;;44.45;5.15;;;36.10;33.10;;;;;;5035781;28;20097;-65
2022/06/11 05:02:20;;;;;;;34.95;5.82;;;36.00;33.30;;;;;;5035253;28;20073;-64
2022/06/11 05:04:47;;;;;;;51.92;6.30;;;36.00;33.50;;;;;;5038296;28;20071;-66
2022/06/11 05:07:13;;;;;;;27.77;5.18;;;36.00;33.80;;;;;;5036648;28;20143;-65
2022/06/11 05:09:40;;;;;;;47.17;6.80;;;35.90;33.40;;;;;;5032341;28;20458;-65
2022/06/11 05:12:07;;;;;;;26.20;5.35;;;35.80;33.80;;;;;;5039752;28;20049;-66
2022/06/11 05:14:34;;;;;;;30.67;6.65;;;35.80;33.70;;;;;;5038903;28;20068;-66
2022/06/11 05:17:01;;;;;;;36.47;7.00;;;35.70;34.10;;;;;;5040848;28;20544;-64
2022/06/11 05:19:27;;;;;;;28.63;5.45;;;35.70;34.00;;;;;;5040823;28;20076;-65
2022/06/11 05:21:54;;;;;;;29.00;4.80;;;35.60;34.10;;;;;;5033860;28;20075;-64
2022/06/11 05:24:21;;;;;;;29.60;5.28;;;35.60;34.10;;;;;;5038717;28;20082;-64
2022/06/11 05:26:53;;;;;;;31.85;5.60;;;35.60;34.20;;;;;;5041221;28;20503;-64
2022/06/11 05:29:27;;;;;;;34.15;5.47;;;35.50;34.30;;;;;;5042007;28;20097;-64
2022/06/11 05:31:54;;;;;;;21.98;4.47;;;35.50;34.30;;;;;;5041547;28;20077;-64
2022/06/11 05:34:21;;;;;;;28.08;5.70;;;35.40;34.30;;;;;;5017398;28;20118;-64
2022/06/11 05:36:48;;;;;;;25.33;5.07;;;35.40;34.50;;;;;;5035779;28;20067;-64
2022/06/11 05:39:14;;;;;;;30.17;5.15;;;35.30;34.60;;;;;;5034784;28;20511;-64
2022/06/11 05:41:41;;;;;;;22.30;4.65;;;35.30;34.80;;;;;;5033283;28;20092;-64
2022/06/11 05:44:07;;;;;;;22.17;4.38;;;35.30;35.00;;;;;;5019018;28;20085;-64
2022/06/11 05:46:34;;;;;;;25.13;4.25;;;35.10;35.10;;;;;;5034578;28;20078;-66
2022/06/11 05:49:04;;;;;;;23.25;5.20;;;35.10;35.30;;;;;;5035701;28;20610;-64
2022/06/11 05:51:43;;;;;;;26.23;5.90;;;35.10;35.50;;;;;;5035803;28;20165;-64
2022/06/11 05:54:14;;;;;;;31.20;5.50;;;35.00;35.50;;;;;;5037233;28;20537;-65
2022/06/11 05:56:42;;;;;;;23.35;5.45;;;35.00;35.70;;;;;;5025251;28;20109;-64
2022/06/11 05:59:16;;;;;;;30.40;6.53;;;35.00;35.90;;;;;;5040270;28;20096;-66
2022/06/11 06:01:44;;;;;;;25.73;5.43;;;34.90;35.90;;;;;;5035984;28;20091;-64
2022/06/11 06:04:10;;;;;;;52.22;7.20;;;34.90;36.00;;;;;;5053117;28;20076;-69
2022/06/11 06:06:37;;;;;;;31.40;5.55;;;34.80;36.60;;;;;;5036053;28;20154;-68
2022/06/11 06:09:05;;;;;;;28.10;6.32;;;34.80;36.70;;;;;;5032708;28;20642;-67
2022/06/11 06:11:31;;;;;;;43.67;7.30;;;34.70;36.40;;;;;;5049354;28;20073;-68
2022/06/11 06:13:58;;;;;;;31.67;6.95;;;34.70;36.80;;;;;;5024873;28;20418;-68
2022/06/11 06:16:29;;;;;;;26.00;7.28;;;34.60;37.00;;;;;;5040499;28;20107;-66
2022/06/11 06:18:57;;;;;;;29.00;6.35;;;34.60;37.00;;;;;;5025296;28;20070;-68
2022/06/11 06:21:26;;;;;;;27.65;6.75;;;34.50;37.10;;;;;;5034699;28;20076;-68
2022/06/11 06:23:53;;;;;;;29.02;6.53;;;34.50;37.60;;;;;;5035121;28;20063;-66
2022/06/11 06:26:21;;;;;;;26.73;7.20;;;34.40;37.20;;;;;;5033369;28;20078;-68
2022/06/11 06:28:47;;;;;;;24.65;6.30;;;34.40;37.50;;;;;;5034772;28;20091;-68
2022/06/11 06:31:15;;;;;;;16.85;5.63;;;34.40;37.50;;;;;;5035679;28;20152;-67
2022/06/11 06:33:42;;;;;;;23.77;6.10;;;34.40;37.70;;;;;;5019583;28;20545;-69
2022/06/11 06:36:09;;;;;;;23.83;6.05;;;34.30;37.60;;;;;;5036429;28;20530;-68
2022/06/11 06:38:38;;;;;;;25.48;6.50;;;34.20;37.50;;;;;;5047607;28;20070;-69
2022/06/11 06:41:05;;;;;;;24.38;6.78;;;34.20;37.70;;;;;;5025707;28;20555;-69
2022/06/11 06:43:32;;;;;;;19.30;5.47;;;34.20;38.30;;;;;;5040790;28;20161;-68
2022/06/11 06:45:59;;;;;;;32.67;6.70;;;34.10;38.70;;;;;;5055210;28;20227;-68
2022/06/11 06:48:25;;;;;;;27.17;6.43;;;34.10;39.00;;;;;;5056532;28;20470;-69
2022/06/11 06:50:53;;;;;;;17.75;5.53;;;34.00;39.10;;;;;;5027041;28;20145;-68
2022/06/11 06:53:20;;;;;;;23.88;6.32;;;33.90;38.80;;;;;;5050759;28;20066;-68
2022/06/11 06:55:47;;;;;;;24.20;6.03;;;33.90;38.80;;;;;;5039781;28;20069;-69
2022/06/11 06:58:15;;;;;;;27.70;6.10;;;33.80;38.70;;;;;;5040871;28;21010;-66
2022/06/11 07:00:44;;;;;;;26.00;6.70;;;33.80;39.00;;;;;;5056605;28;20079;-66
2022/06/11 07:03:12;;;;;;;33.55;6.03;;;33.70;38.80;;;;;;5020411;28;20514;-66
2022/06/11 07:05:39;;;;;;;33.17;6.30;;;33.70;39.00;;;;;;5054991;28;20072;-66
2022/06/11 07:08:07;;;;;;;20.50;5.38;;;33.70;39.20;;;;;;5037568;28;20076;-66
2022/06/11 07:10:34;;;;;;;28.63;5.50;;;33.60;39.20;;;;;;5049782;28;20156;-66
2022/06/11 07:13:01;;;;;;;24.20;6.13;;;33.60;39.40;;;;;;5034422;28;20075;-66
2022/06/11 07:15:29;;;;;;;23.88;5.75;;;33.50;39.40;;;;;;5059724;28;20461;-66
2022/06/11 07:18:17;;;;;;;24.42;5.72;;;33.50;40.00;;;;;;5041056;28;20062;-66
2022/06/11 07:20:46;;;;;;;26.92;6.63;;;33.40;40.60;;;;;;5059733;28;20093;-66
2022/06/11 07:23:22;;;;;;;29.65;5.53;;;33.40;40.90;;;;;;5020908;28;20072;-66
2022/06/11 07:25:53;;;;;;;23.00;4.78;;;33.40;41.40;;;;;;5053851;28;20082;-65
2022/06/11 07:28:42;;;;;;;18.77;4.63;;;33.30;42.10;;;;;;5031121;28;20526;-66
2022/06/11 07:31:08;;;;;;;17.80;4.03;;;33.20;42.80;;;;;;5032711;28;20074;-66
2022/06/11 07:33:35;;;;;;;16.58;4.05;;;33.10;43.40;;;;;;5053474;28;20097;-66
2022/06/11 07:36:02;;;;;;;16.45;3.78;;;33.10;43.70;;;;;;5037834;28;20099;-66
2022/06/11 07:38:29;;;;;;;22.17;3.90;;;33.00;44.00;;;;;;5052551;28;20059;-66
2022/06/11 07:40:55;;;;;;;13.55;3.75;;;32.80;44.40;;;;;;5035158;28;20068;-66
2022/06/11 07:43:23;;;;;;;13.65;3.42;;;32.80;44.70;;;;;;5039569;28;20084;-67
2022/06/11 07:45:49;;;;;;;19.70;3.78;;;32.70;44.90;;;;;;5031635;28;20101;-67
2022/06/11 07:48:16;;;;;;;14.80;3.13;;;32.70;45.40;;;;;;5056900;28;20055;-67
2022/06/11 07:50:48;;;;;;;13.45;2.92;;;32.60;45.70;;;;;;5054067;28;20051;-66
2022/06/11 07:53:15;;;;;;;25.75;3.30;;;32.60;46.00;;;;;;5051374;28;20114;-66
2022/06/11 07:55:44;;;;;;;13.65;3.58;;;32.40;46.40;;;;;;5065166;28;20443;-66
2022/06/11 07:58:12;;;;;;;15.20;3.30;;;32.40;47.70;;;;;;5035676;28;20065;-66
2022/06/11 08:00:45;;;;;;;15.15;3.67;;;32.40;48.10;;;;;;5036345;28;20105;-66
2022/06/11 08:03:12;;;;;;;11.95;3.42;;;32.40;48.60;;;;;;5035208;28;20595;-66
2022/06/11 08:05:41;;;;;;;8.82;3.35;;;32.20;48.80;;;;;;5055278;28;20085;-65
2022/06/11 08:08:08;;;;;;;12.70;3.22;;;32.10;50.00;;;;;;5054181;28;20084;-66
2022/06/11 08:10:37;;;;;;;12.25;3.70;;;32.00;49.60;;;;;;5038101;28;20074;-66
2022/06/11 08:13:05;;;;;;;12.32;3.00;;;32.00;49.80;;;;;;5022892;28;20121;-65
2022/06/11 08:15:31;;;;;;;10.43;3.83;;;32.00;50.00;;;;;;5040164;28;20129;-66
2022/06/11 08:17:58;;;;;;;10.18;3.53;;;32.00;50.00;;;;;;5036531;28;20449;-65
2022/06/11 08:20:30;;;;;;;18.30;3.30;;;31.90;50.20;;;;;;5039556;28;20088;-65
2022/06/11 08:22:57;;;;;;;16.10;3.80;;;31.90;50.40;;;;;;5018066;28;20079;-66
2022/06/11 08:25:23;;;;;;;15.90;3.13;;;31.80;50.30;;;;;;5041229;28;20098;-66
2022/06/11 08:27:51;;;;;;;15.30;3.47;;;31.80;50.50;;;;;;5041587;28;20171;-66
2022/06/11 08:30:20;;;;;;;16.75;3.83;;;31.80;50.30;;;;;;5038012;28;20066;-65
2022/06/11 08:32:48;;;;;;;12.45;4.10;;;31.90;50.20;;;;;;5021680;28;20071;-67
2022/06/11 08:35:16;;;;;;;14.63;4.00;;;31.70;50.20;;;;;;5030639;28;20130;-66
2022/06/11 08:37:43;;;;;;;14.48;4.22;;;31.70;50.60;;;;;;5039347;28;20087;-66
2022/06/11 08:40:21;;;;;;;19.73;4.07;;;31.60;50.40;;;;;;5041396;28;20513;-66
2022/06/11 08:42:57;;;;;;;11.57;3.45;;;31.60;50.50;;;;;;5037846;28;20071;-65
2022/06/11 08:45:36;;;;;;;15.93;4.10;;;31.60;50.60;;;;;;5041025;28;20441;-66
2022/06/11 08:48:12;;;;;;;21.65;4.60;;;31.50;50.60;;;;;;5040001;28;20083;-67
2022/06/11 08:50:47;;;;;;;25.77;4.43;;;31.50;50.60;;;;;;5044785;28;20075;-65
2022/06/11 08:53:15;;;;;;;16.92;4.53;;;31.50;50.70;;;;;;5035340;28;20167;-66
2022/06/11 08:55:41;;;;;;;22.33;4.75;;;31.40;50.90;;;;;;5033988;28;20084;-67
2022/06/11 08:58:21;;;;;;;16.90;4.60;;;31.40;51.10;;;;;;5019397;28;20134;-66
2022/06/11 09:00:54;;;;;;;18.95;5.00;;;31.40;51.20;;;;;;5063041;28;20578;-66
2022/06/11 09:03:46;;;;;;;26.73;4.75;;;31.30;51.20;;;;;;5051707;28;20111;-66
2022/06/11 09:06:35;;;;;;;16.92;5.30;;;31.10;51.40;;;;;;5033802;28;20077;-66
2022/06/11 09:09:04;;;;;;;16.42;4.75;;;31.00;51.90;;;;;;5062215;28;20158;-66
2022/06/11 09:11:54;;;;;;;17.85;3.90;;;31.00;51.80;;;;;;5062060;28;20600;-66
2022/06/11 09:14:42;;;;;;;25.40;5.07;;;30.80;51.90;;;;;;5062835;28;20059;-67
2022/06/11 09:17:24;;;;;;;9.80;3.78;;;30.70;52.20;;;;;;5020195;28;20085;-66
2022/06/11 09:20:27;;;;;;;12.40;3.67;;;30.60;52.30;;;;;;5021451;28;20265;-67
2022/06/11 09:23:13;;;;;;;18.27;3.88;;;30.50;52.70;;;;;;5063584;28;20055;-66
2022/06/11 09:26:07;;;;;;;18.38;3.88;;;30.50;52.80;;;;;;5053368;28;20033;-67
2022/06/11 09:29:07;;;;;;;16.00;3.55;;;30.60;52.90;;;;;;5053591;28;20039;-67
2022/06/11 09:31:59;;;;;;;15.75;4.07;;;30.60;52.90;;;;;;5045563;28;20060;-66
2022/06/11 09:34:44;;;;;;;16.15;3.63;;;30.50;53.10;;;;;;5038363;28;20025;-66
2022/06/11 09:37:15;;;;;;;20.42;3.75;;;30.40;53.50;;;;;;5038276;28;20043;-66
2022/06/11 09:39:49;;;;;;;17.42;3.80;;;30.20;53.70;;;;;;5048085;28;20086;-65
2022/06/11 09:42:21;;;;;;;16.92;3.53;;;30.20;54.00;;;;;;5038003;28;20445;-65
2022/06/11 09:45:24;;;;;;;25.83;3.95;;;30.10;54.20;;;;;;5057163;28;20155;-67
2022/06/11 09:48:16;;;;;;;14.52;3.47;;;30.10;54.40;;;;;;5058503;28;20705;-66
2022/06/11 09:50:53;;;;;;;14.50;3.75;;;30.10;54.80;;;;;;5064770;28;20032;-66
2022/06/11 09:53:38;;;;;;;14.93;3.75;;;30.50;67.50;;;;;;5041017;28;20082;-67
2022/06/11 09:56:47;;;;;;;19.13;3.83;;;30.00;55.00;;;;;;5053041;28;20458;-66
2022/06/11 09:59:23;;;;;;;18.20;3.92;;;30.00;55.20;;;;;;4991613;28;20044;-65
2022/06/11 10:02:37;;;;;;;23.48;4.85;;;30.10;55.60;;;;;;4992410;28;20044;-66
2022/06/11 10:05:15;;;;;;;22.10;4.85;;;29.80;56.00;;;;;;4982766;28;20084;-66
2022/06/11 10:07:46;;;;;;;13.80;5.07;;;29.90;56.40;;;;;;5007370;28;20562;-67
2022/06/11 10:10:23;;;;;;;14.85;5.07;;;29.90;56.50;;;;;;4992647;28;20091;-66
2022/06/11 10:12:56;;;;;;;21.10;4.88;;;29.90;56.70;;;;;;4996583;28;20068;-66
2022/06/11 10:15:32;;;;;;;16.67;5.00;;;29.90;56.70;;;;;;4993688;28;20033;-66
2022/06/11 10:18:17;;;;;;;22.17;5.43;;;30.00;57.40;;;;;;5006727;28;20077;-66
2022/06/11 10:20:56;;;;;;;19.80;5.10;;;29.90;57.50;;;;;;5007705;28;20400;-66
2022/06/11 10:23:26;;;;;;;19.50;5.10;;;30.00;57.80;;;;;;4992482;28;20073;-66
2022/06/11 10:26:01;;;;;;;23.40;5.22;;;30.00;57.40;;;;;;4991612;28;20091;-67
2022/06/11 10:28:40;;;;;;;21.42;5.60;;;29.90;57.60;;;;;;4990990;28;20155;-67
2022/06/11 10:31:15;;;;;;;20.52;5.47;;;29.80;57.90;;;;;;4991775;28;20081;-66
2022/06/11 10:33:50;;;;;;;21.00;5.95;;;29.80;58.30;;;;;;5041332;28;20095;-66
2022/06/11 10:36:30;;;;;;;26.35;6.07;;;29.80;58.40;;;;;;5041491;28;20067;-66
2022/06/11 10:39:10;;;;;;;26.30;5.80;;;29.80;58.80;;;;;;5034360;28;20053;-66
2022/06/11 10:41:55;;;;;;;24.17;6.25;;;29.70;58.70;;;;;;5037231;28;20032;-66
2022/06/11 10:44:39;;;;;;;23.52;6.18;;;29.60;59.30;;;;;;5036257;28;20133;-66
2022/06/11 10:47:52;;;;;;;25.40;6.72;;;29.50;59.60;;;;;;5020947;28;20069;-66
2022/06/11 10:50:18;;;;;;;20.25;6.18;;;29.60;59.80;;;;;;4970518;28;20537;-66
2022/06/11 10:53:02;;;;;;;28.45;7.60;;;29.50;60.50;;;;;;4972502;28;20117;-67
2022/06/11 10:55:42;;;;;;;22.83;6.80;;;29.60;61.00;;;;;;4956751;28;20160;-66
2022/06/11 10:58:24;;;;;;;26.83;6.65;;;29.50;61.40;;;;;;4972215;28;20552;-66
2022/06/11 11:01:03;;;;;;;23.48;6.32;;;29.50;62.30;;;;;;4971025;28;20121;-66
2022/06/11 11:03:39;;;;;;;20.23;5.97;;;29.50;63.00;;;;;;4987414;28;20070;-67
2022/06/11 11:06:16;;;;;;;25.70;5.70;;;29.50;63.60;;;;;;4987956;28;20180;-66
2022/06/11 11:08:55;;;;;;;17.98;4.72;;;29.50;63.70;;;;;;4957452;28;20101;-66
2022/06/11 11:11:23;;;;;;;16.02;5.30;;;29.60;64.10;;;;;;4972038;28;20092;-68
2022/06/11 11:13:57;;;;;;;17.75;5.03;;;29.50;64.30;;;;;;4972089;28;20487;-67
2022/06/11 11:16:29;;;;;;;21.20;4.75;;;29.60;64.60;;;;;;4988718;28;20093;-66
2022/06/11 11:19:15;;;;;;;27.45;5.55;;;29.50;64.60;;;;;;4972070;28;20495;-67
2022/06/11 11:21:55;;;;;;;21.50;5.47;;;29.50;64.40;;;;;;4987812;28;20111;-66
2022/06/11 11:24:45;;;;;;;23.30;5.60;;;29.50;64.70;;;;;;5022991;28;20103;-66
2022/06/11 11:27:23;;;;;;;25.38;5.50;;;29.50;64.80;;;;;;5052990;28;20085;-66
2022/06/11 11:30:20;;;;;;;18.25;5.57;;;29.40;64.70;;;;;;5037649;28;20182;-67
2022/06/11 11:32:47;;;;;;;25.98;6.47;;;29.40;64.80;;;;;;5038356;28;20083;-66
2022/06/11 11:35:27;;;;;;;16.33;4.93;;;29.30;65.00;;;;;;5038329;28;20076;-65
2022/06/11 11:38:04;;;;;;;25.95;5.47;;;29.30;65.30;;;;;;5036264;28;20146;-66
2022/06/11 11:41:06;;;;;;;26.73;5.20;;;29.30;65.50;;;;;;5052266;28;20099;-66
2022/06/11 11:43:37;;;;;;;18.40;4.97;;;29.20;65.60;;;;;;5057736;28;20162;-67
2022/06/11 11:46:20;;;;;;;17.30;4.75;;;29.20;65.80;;;;;;5037877;28;20093;-68
2022/06/11 11:48:58;;;;;;;20.70;4.93;;;29.20;65.80;;;;;;5059288;28;20134;-69
2022/06/11 11:51:32;;;;;;;25.70;5.30;;;29.10;65.80;;;;;;5035036;28;20076;-67
2022/06/11 11:54:03;;;;;;;15.40;5.15;;;29.00;65.80;;;;;;5039455;28;20519;-67
2022/06/11 11:56:36;;;;;;;20.05;5.43;;;29.00;65.30;;;;;;5039636;28;20553;-66
2022/06/11 11:59:15;;;;;;;17.58;5.18;;;29.10;65.40;;;;;;5035931;28;20103;-67
2022/06/11 12:01:43;;;;;;;18.88;5.55;;;29.10;65.30;;;;;;5054470;28;20225;-67
2022/06/11 12:04:31;;;;;;;19.95;5.03;;;29.10;64.20;;;;;;5036645;28;20068;-66
2022/06/11 12:07:13;;;;;;;15.35;4.70;;;28.80;63.10;;;;;;5057346;28;20095;-66
2022/06/11 12:09:56;;;;;;;16.60;4.53;;;28.80;63.30;;;;;;5033220;28;20119;-67
2022/06/11 12:12:29;;;;;;;20.10;6.00;;;28.90;63.00;;;;;;5063126;28;20071;-66
2022/06/11 12:15:01;;;;;;;16.95;4.85;;;28.90;62.20;;;;;;5041948;28;20171;-69
2022/06/11 12:17:41;;;;;;;23.73;5.00;;;28.90;62.10;;;;;;5040623;28;20064;-67
2022/06/11 12:20:26;;;;;;;25.42;5.03;;;28.90;62.00;;;;;;5038142;28;20457;-67
2022/06/11 12:23:21;;;;;;;20.73;4.70;;;28.80;62.30;;;;;;5056387;28;20080;-66
2022/06/11 12:26:06;;;;;;;14.25;4.45;;;28.80;61.90;;;;;;5019441;28;20534;-66
2022/06/11 12:28:48;;;;;;;21.23;4.55;;;28.80;61.60;;;;;;5025878;28;20161;-66
2022/06/11 12:31:15;;;;;;;17.25;5.15;;;28.80;61.40;;;;;;5053369;28;20068;-66
2022/06/11 12:33:44;;;;;;;17.65;4.82;;;28.80;61.30;;;;;;5053281;28;20092;-67
2022/06/11 12:36:36;;;;;;;18.65;4.72;;;28.80;61.10;;;;;;5048795;28;20125;-66
2022/06/11 12:39:22;;;;;;;16.88;5.03;;;28.70;61.00;;;;;;5063510;28;20072;-67
2022/06/11 12:42:17;;;;;;;13.75;4.90;;;28.70;61.20;;;;;;5033099;28;20072;-67
2022/06/11 12:44:51;;;;;;;18.58;4.97;;;28.70;61.40;;;;;;5049717;28;20534;-66
2022/06/11 12:47:46;;;;;;;24.88;5.20;;;28.70;61.80;;;;;;5035947;28;20085;-67
2022/06/11 12:50:38;;;;;;;15.27;4.82;;;28.70;62.20;;;;;;5056032;28;20072;-66
2022/06/11 12:53:58;;;;;;;19.90;4.55;;;28.70;63.50;;;;;;5063718;28;20073;-66
2022/06/11 12:57:02;;;;;;;19.08;5.00;;;28.70;66.60;;;;;;5024400;28;20104;-66
2022/06/11 13:00:11;;;;;;;24.52;5.82;;;28.70;68.70;;;;;;5012380;28;21653;-67
2022/06/11 13:03:04;;;;;;;22.40;6.38;;;28.60;70.80;;;;;;4952987;28;20767;-67
2022/06/11 13:06:01;;;;;;;22.58;5.35;;;28.60;71.70;;;;;;4954339;28;20091;-67
2022/06/11 13:08:57;;;;;;;30.98;6.47;;;28.60;72.10;;;;;;4951880;28;20099;-67
2022/06/11 13:11:43;;;;;;;31.25;5.95;;;28.50;71.90;;;;;;4936295;28;20102;-67
2022/06/11 13:14:40;;;;;;;21.42;6.80;;;28.50;72.30;;;;;;4955753;28;20105;-66
2022/06/11 13:17:23;;;;;;;26.73;7.33;;;28.50;72.80;;;;;;4958620;28;20090;-66
2022/06/11 13:19:58;;;;;;;34.80;8.75;;;28.40;73.20;;;;;;4933179;28;20086;-66